Time;durP1;ratioP1;P1;durP2;ratioP2;P2;SDS_P1;SDS_P2;PMS_P1;PMS_P2;Temp;Humidity;BMP_temperature;BMP_pressure;BME280_temperature;BME280_humidity;BME280_pressure;Samples;Min_cycle;Max_cycle;Signal;HPM_P1;HPM_P2
2022/01/10 00:00:18;;;;;;;25.50;6.73;;;2.60;99.90;;;;;;5060465;28;20478;-81
2022/01/10 00:03:03;;;;;;;20.87;5.90;;;2.60;99.90;;;;;;5075497;28;20454;-82
2022/01/10 00:05:47;;;;;;;21.27;6.47;;;2.60;99.90;;;;;;5076016;28;20039;-81
2022/01/10 00:08:32;;;;;;;25.20;5.47;;;2.60;99.90;;;;;;5060652;28;20067;-82
2022/01/10 00:11:16;;;;;;;22.70;5.43;;;3.30;99.90;;;;;;5075362;28;20056;-81
2022/01/10 00:14:00;;;;;;;;;;;2.50;99.90;;;;;;5060714;28;20086;-81
2022/01/10 00:16:44;;;;;;;22.10;5.50;;;3.40;99.90;;;;;;5060506;28;20387;-81
2022/01/10 00:19:28;;;;;;;;;;;3.40;99.90;;;;;;5060872;28;20051;-82
2022/01/10 00:22:13;;;;;;;25.50;5.45;;;3.10;99.90;;;;;;5075211;28;19967;-81
2022/01/10 00:24:57;;;;;;;28.07;5.47;;;2.50;99.90;;;;;;5060488;28;20040;-81
2022/01/10 00:27:42;;;;;;;20.70;5.73;;;2.40;99.90;;;;;;5075478;28;20124;-82
2022/01/10 00:30:26;;;;;;;21.30;5.17;;;3.70;99.90;;;;;;5075499;28;20127;-82
2022/01/10 00:33:11;;;;;;;20.23;5.47;;;2.40;99.90;;;;;;5074901;28;20040;-81
2022/01/10 00:35:54;;;;;;;;;;;2.30;99.90;;;;;;5075817;28;20059;-81
2022/01/10 00:38:39;;;;;;;20.38;4.57;;;3.00;99.90;;;;;;5075449;28;20067;-81
2022/01/10 00:41:23;;;;;;;18.20;4.53;;;2.20;99.90;;;;;;5074725;28;20126;-81
2022/01/10 00:44:09;;;;;;;20.03;4.83;;;2.30;99.90;;;;;;5074861;28;20036;-81
2022/01/10 00:46:54;;;;;;;16.97;5.03;;;2.20;99.90;;;;;;5075269;28;20519;-81
2022/01/10 00:49:38;;;;;;;;;;;2.10;99.90;;;;;;5075559;28;20094;-81
2022/01/10 00:52:22;;;;;;;19.17;4.70;;;3.00;99.90;;;;;;5074733;28;20321;-81
2022/01/10 00:55:07;;;;;;;24.20;4.70;;;2.00;99.90;;;;;;5074630;28;20047;-81
2022/01/10 00:57:52;;;;;;;18.80;5.43;;;2.00;99.90;;;;;;5059776;28;20035;-81
2022/01/10 01:00:36;;;;;;;27.30;5.40;;;2.10;99.90;;;;;;5074991;28;20070;-81
2022/01/10 01:03:20;;;;;;;;;;;1.90;99.90;;;;;;5059732;28;20123;-81
2022/01/10 01:06:04;;;;;;;27.15;4.65;;;1.90;99.90;;;;;;5059593;28;19911;-81
2022/01/10 01:08:49;;;;;;;15.60;4.37;;;2.10;99.90;;;;;;5059743;28;20098;-81
2022/01/10 01:14:54;;;;;;;18.80;5.40;;;2.10;99.90;;;;;;5040225;28;20048;-81
2022/01/10 01:17:57;;;;;;;19.80;5.63;;;2.40;99.90;;;;;;5059953;28;20036;-81
2022/01/10 01:20:44;;;;;;;20.67;6.17;;;3.10;99.90;;;;;;5074538;28;20086;-81
2022/01/10 01:26:35;;;;;;;23.63;6.70;;;1.60;99.90;;;;;;5061790;28;20043;-81
2022/01/10 01:29:25;;;;;;;24.83;7.23;;;2.70;99.90;;;;;;5073885;28;20040;-81
2022/01/10 01:32:09;;;;;;;19.37;5.53;;;1.60;99.90;;;;;;5073873;28;20043;-81
2022/01/10 01:34:56;;;;;;;17.13;5.93;;;1.50;99.90;;;;;;5059067;28;20043;-81
2022/01/10 01:37:41;;;;;;;20.47;6.70;;;1.50;99.90;;;;;;5058932;28;20089;-81
2022/01/10 01:40:28;;;;;;;24.10;7.03;;;1.40;99.90;;;;;;5058639;28;20067;-81
2022/01/10 01:43:12;;;;;;;19.10;7.67;;;1.40;99.90;;;;;;5058517;28;20043;-81
2022/01/10 01:45:57;;;;;;;26.87;7.57;;;1.40;99.90;;;;;;5058897;28;20105;-81
2022/01/10 01:48:41;;;;;;;;;;;1.70;99.90;;;;;;5074329;28;20090;-81
2022/01/10 01:51:25;;;;;;;25.02;7.13;;;1.30;99.90;;;;;;5058055;28;20363;-81
2022/01/10 01:54:10;;;;;;;31.53;8.13;;;2.80;99.90;;;;;;5073819;28;20125;-81
2022/01/10 01:56:54;;;;;;;30.63;8.50;;;1.30;99.90;;;;;;5073756;28;20039;-81
2022/01/10 01:59:38;;;;;;;31.50;8.47;;;1.60;99.90;;;;;;5073894;28;20048;-81
2022/01/10 02:02:22;;;;;;;41.30;9.50;;;1.20;99.90;;;;;;5073267;28;20504;-81
2022/01/10 02:05:07;;;;;;;34.50;9.07;;;1.20;99.90;;;;;;5058643;28;20038;-81
2022/01/10 02:07:52;;;;;;;23.80;8.33;;;1.20;99.90;;;;;;5073642;28;20458;-81
2022/01/10 02:10:37;;;;;;;28.50;7.90;;;2.10;99.90;;;;;;5057945;28;20396;-81
2022/01/10 02:13:22;;;;;;;26.90;8.03;;;1.10;99.90;;;;;;5073110;28;20044;-81
2022/01/10 02:16:09;;;;;;;20.93;8.33;;;1.10;99.90;;;;;;5058459;28;20030;-82
2022/01/10 02:18:53;;;;;;;18.40;7.47;;;1.10;99.90;;;;;;5058188;28;20507;-81
2022/01/10 02:21:38;;;;;;;24.08;7.50;;;1.10;99.90;;;;;;5057775;28;20064;-81
2022/01/10 02:24:23;;;;;;;17.90;8.17;;;1.00;99.90;;;;;;5072866;28;20044;-82
2022/01/10 02:27:07;;;;;;;21.50;7.90;;;2.00;99.90;;;;;;5073341;28;20115;-81
2022/01/10 02:29:52;;;;;;;20.13;7.27;;;2.40;99.90;;;;;;5058033;28;20059;-81
2022/01/10 02:32:37;;;;;;;24.90;7.73;;;0.90;99.90;;;;;;5057607;28;20409;-81
2022/01/10 02:35:27;;;;;;;27.83;8.43;;;0.90;99.90;;;;;;5057341;28;20101;-81
2022/01/10 02:38:11;;;;;;;24.37;8.13;;;0.90;99.90;;;;;;5058694;28;20495;-81
2022/01/10 02:40:57;;;;;;;35.67;8.93;;;0.80;99.90;;;;;;5072931;28;20125;-81
2022/01/10 02:43:41;;;;;;;28.10;9.37;;;0.80;99.90;;;;;;5072230;28;20048;-81
2022/01/10 02:46:25;;;;;;;;;;;0.80;99.90;;;;;;5072905;28;20480;-81
2022/01/10 02:49:14;;;;;;;28.40;8.73;;;0.80;99.90;;;;;;5072897;28;19916;-81
2022/01/10 02:51:59;;;;;;;34.83;8.43;;;2.30;99.90;;;;;;5072856;28;20499;-81
2022/01/10 02:54:42;;;;;;;;;;;0.90;99.90;;;;;;5072791;28;20062;-81
2022/01/10 02:57:31;;;;;;;25.90;8.45;;;0.90;99.90;;;;;;5072340;28;19970;-81
2022/01/10 03:00:18;;;;;;;27.07;7.97;;;0.80;99.90;;;;;;5072766;28;20044;-81
2022/01/10 03:03:06;;;;;;;30.60;7.50;;;0.80;99.90;;;;;;5057048;28;20043;-81
2022/01/10 03:05:51;;;;;;;27.73;9.07;;;0.80;99.90;;;;;;5038712;28;20075;-82
2022/01/10 03:08:35;;;;;;;23.88;8.13;;;1.10;99.90;;;;;;5052235;28;20094;-81
2022/01/10 03:11:19;;;;;;;;;;;0.80;99.90;;;;;;5037904;28;20099;-82
2022/01/10 03:14:04;;;;;;;32.05;10.15;;;0.70;99.90;;;;;;5037580;28;20007;-82
2022/01/10 03:16:48;;;;;;;27.33;9.53;;;0.70;99.90;;;;;;5037755;28;20035;-81
2022/01/10 03:19:32;;;;;;;30.83;10.90;;;0.80;99.90;;;;;;5036799;28;20140;-81
2022/01/10 03:22:16;;;;;;;;;;;1.00;99.90;;;;;;5037794;28;20048;-81
2022/01/10 03:25:01;;;;;;;;;;;2.20;99.90;;;;;;5037931;28;19915;-81
2022/01/10 03:27:46;;;;;;;27.58;9.50;;;0.80;99.90;;;;;;5036876;28;19923;-81
2022/01/10 03:30:31;;;;;;;34.50;10.87;;;0.80;99.90;;;;;;5051898;28;20515;-81
2022/01/10 03:33:14;;;;;;;;;;;0.80;99.90;;;;;;5037841;28;20044;-81
2022/01/10 03:35:59;;;;;;;31.80;10.18;;;0.80;99.90;;;;;;5052507;28;20376;-81
2022/01/10 03:38:43;;;;;;;33.30;11.13;;;0.70;99.90;;;;;;5036829;28;20465;-81
2022/01/10 03:41:27;;;;;;;;;;;2.00;99.90;;;;;;5037129;28;20496;-81
2022/01/10 03:44:11;;;;;;;20.63;7.57;;;1.10;99.90;;;;;;5052383;28;19916;-81
2022/01/10 03:46:56;;;;;;;31.85;9.95;;;0.60;99.90;;;;;;5052262;28;20040;-81
2022/01/10 03:49:41;;;;;;;29.40;10.77;;;0.60;99.90;;;;;;5036655;28;20040;-81
2022/01/10 03:52:26;;;;;;;28.87;11.50;;;1.50;99.90;;;;;;5052138;28;20059;-81
2022/01/10 03:55:10;;;;;;;37.30;11.07;;;0.60;99.90;;;;;;5037276;28;20040;-81
2022/01/10 03:57:55;;;;;;;25.87;9.53;;;0.50;99.90;;;;;;5051941;28;20488;-81
2022/01/10 04:00:39;;;;;;;;;;;0.50;99.90;;;;;;5052136;28;20063;-81
2022/01/10 04:03:23;;;;;;;27.35;10.13;;;0.50;99.90;;;;;;5051994;28;19915;-81
2022/01/10 04:06:09;;;;;;;24.53;10.27;;;1.50;99.90;;;;;;5052056;28;20044;-81
2022/01/10 04:08:53;;;;;;;34.03;10.77;;;0.40;99.90;;;;;;5036508;28;20044;-81
2022/01/10 04:11:37;;;;;;;29.77;9.80;;;0.40;99.90;;;;;;5051875;28;20041;-81
2022/01/10 04:14:21;;;;;;;;;;;0.40;99.90;;;;;;5037275;28;20040;-81
2022/01/10 04:17:05;;;;;;;15.93;6.57;;;1.10;99.90;;;;;;5055913;28;20340;-81
2022/01/10 04:19:49;;;;;;;25.23;9.73;;;0.90;99.90;;;;;;5055091;28;20083;-81
2022/01/10 04:22:33;;;;;;;;;;;0.30;99.90;;;;;;5040604;28;20079;-81
2022/01/10 04:25:18;;;;;;;25.50;9.55;;;0.50;99.90;;;;;;5055587;28;19916;-81
2022/01/10 04:28:02;;;;;;;32.73;10.43;;;0.20;99.90;;;;;;5040388;28;20053;-81
2022/01/10 04:30:47;;;;;;;34.63;11.43;;;0.20;99.90;;;;;;5040000;28;20039;-81
2022/01/10 04:33:31;;;;;;;28.70;10.00;;;0.20;99.90;;;;;;5040427;28;20040;-81
2022/01/10 04:36:15;;;;;;;;;;;1.20;99.90;;;;;;5055693;28;20060;-81
2022/01/10 04:38:59;;;;;;;20.90;8.48;;;0.50;99.90;;;;;;5054940;28;19919;-81
2022/01/10 04:41:44;;;;;;;32.50;10.60;;;0.10;99.90;;;;;;5039791;28;20048;-81
2022/01/10 04:44:28;;;;;;;31.90;11.40;;;0.10;99.90;;;;;;5055282;28;20086;-81
2022/01/10 04:47:12;;;;;;;;;;;0.20;99.90;;;;;;5055592;28;20047;-81
2022/01/10 04:52:44;;;;;;;27.80;10.77;;;0.10;99.90;;;;;;5054589;28;20492;-81
2022/01/10 04:55:29;;;;;;;27.70;10.50;;;0.70;99.90;;;;;;5040165;28;20035;-81
2022/01/10 04:58:12;;;;;;;;;;;0.10;99.90;;;;;;5055329;28;20048;-81
2022/01/10 05:00:57;;;;;;;36.65;9.90;;;0.10;99.90;;;;;;5054487;28;19924;-81
2022/01/10 05:03:41;;;;;;;27.92;11.55;;;0.10;99.90;;;;;;5039324;28;20099;-81
2022/01/10 05:06:25;;;;;;;30.57;11.90;;;0.10;99.90;;;;;;5054820;28;20082;-82
2022/01/10 05:09:09;;;;;;;;;;;1.20;99.90;;;;;;5054229;28;20044;-82
2022/01/10 05:11:54;;;;;;;36.22;12.98;;;0.10;99.90;;;;;;5054351;28;20285;-82
2022/01/10 05:14:40;;;;;;;27.77;11.87;;;0.10;99.90;;;;;;5039679;28;20060;-82
2022/01/10 05:17:24;;;;;;;44.43;14.13;;;1.10;99.90;;;;;;5054600;28;20040;-82
2022/01/10 05:20:09;;;;;;;39.20;13.80;;;0.10;99.90;;;;;;5054554;28;20060;-82
2022/01/10 05:22:53;;;;;;;34.00;13.20;;;0.10;99.90;;;;;;5054018;28;20555;-82
2022/01/10 05:25:40;;;;;;;;;;;0.30;99.90;;;;;;5039802;28;20542;-82
2022/01/10 05:28:24;;;;;;;37.70;14.47;;;0.20;99.90;;;;;;5053648;28;19951;-82
2022/01/10 05:31:08;;;;;;;35.33;15.63;;;0.10;99.90;;;;;;5054541;28;20036;-82
2022/01/10 05:33:53;;;;;;;40.30;14.77;;;1.00;99.90;;;;;;5038787;28;20044;-82
2022/01/10 05:36:38;;;;;;;41.03;14.33;;;0.20;99.90;;;;;;5054289;28;20175;-82
2022/01/10 05:39:21;;;;;;;;;;;1.80;99.90;;;;;;5054475;28;20395;-82
2022/01/10 05:42:06;;;;;;;39.95;14.88;;;0.60;99.90;;;;;;5053692;28;20471;-82
2022/01/10 05:44:50;;;;;;;33.97;15.43;;;0.10;99.90;;;;;;5053624;28;20390;-82
2022/01/10 05:47:40;;;;;;;;;;;0.10;99.90;;;;;;5054413;28;20040;-82
2022/01/10 05:50:33;;;;;;;39.57;16.50;;;0.10;99.90;;;;;;5053945;28;19916;-82
2022/01/10 05:53:19;;;;;;;41.25;15.88;;;0.10;99.90;;;;;;5054124;28;20048;-82
2022/01/10 05:56:03;;;;;;;42.23;17.83;;;0.10;99.90;;;;;;5053434;28;20063;-82
2022/01/10 05:58:48;;;;;;;45.27;17.07;;;0.10;99.90;;;;;;5053256;28;20052;-82
2022/01/10 06:01:32;;;;;;;43.23;17.10;;;1.40;99.90;;;;;;5052961;28;20154;-82
2022/01/10 06:04:16;;;;;;;;;;;0.10;99.90;;;;;;5054236;28;20044;-82
2022/01/10 06:07:00;;;;;;;40.25;16.27;;;0.10;99.90;;;;;;5038122;28;19962;-83
2022/01/10 06:09:44;;;;;;;39.43;15.10;;;0.10;99.90;;;;;;5038387;28;20047;-82
2022/01/10 06:12:29;;;;;;;43.80;15.47;;;0.10;99.90;;;;;;5038427;28;20055;-83
2022/01/10 06:15:13;;;;;;;;;;;0.00;99.90;;;;;;5053385;28;20040;-83
2022/01/10 06:17:57;;;;;;;32.85;14.50;;;0.10;99.90;;;;;;5037908;28;19966;-83
2022/01/10 06:20:41;;;;;;;31.93;13.47;;;0.50;99.90;;;;;;5052351;28;20036;-82
2022/01/10 06:23:25;;;;;;;;;;;0.90;99.90;;;;;;5038545;28;20500;-83
2022/01/10 06:26:10;;;;;;;26.55;9.43;;;1.00;99.90;;;;;;5037714;28;19967;-83
2022/01/10 06:28:54;;;;;;;28.67;12.53;;;-0.10;99.90;;;;;;5023750;28;20091;-82
2022/01/10 06:31:39;;;;;;;33.43;14.73;;;-0.10;99.90;;;;;;5021452;28;20035;-83
2022/01/10 06:34:23;;;;;;;28.77;13.23;;;-0.10;99.90;;;;;;5074517;28;20090;-83
2022/01/10 06:37:07;;;;;;;26.37;13.27;;;-0.10;99.90;;;;;;5070627;28;20059;-83
2022/01/10 06:39:52;;;;;;;28.33;13.17;;;-0.10;99.90;;;;;;5070616;28;20040;-83
2022/01/10 06:42:36;;;;;;;32.17;12.77;;;-0.10;99.90;;;;;;5071759;28;20051;-83
2022/01/10 06:45:21;;;;;;;26.17;14.33;;;-0.20;99.90;;;;;;5072292;28;20036;-83
2022/01/10 06:48:05;;;;;;;36.88;14.00;;;-0.20;99.90;;;;;;5051997;28;20086;-83
2022/01/10 06:50:49;;;;;;;38.83;14.70;;;-0.20;99.90;;;;;;5046060;28;20547;-83
2022/01/10 06:53:33;;;;;;;28.10;14.17;;;-0.20;99.90;;;;;;5037808;28;20110;-83
2022/01/10 06:56:17;;;;;;;;;;;-0.20;99.90;;;;;;5037105;28;20040;-83
2022/01/10 06:59:02;;;;;;;31.02;13.75;;;0.60;99.90;;;;;;5039597;28;19924;-83
2022/01/10 07:01:47;;;;;;;36.17;15.43;;;-0.30;99.90;;;;;;5052259;28;20048;-82
2022/01/10 07:04:32;;;;;;;36.13;15.60;;;-0.30;99.90;;;;;;5067966;28;20040;-83
2022/01/10 07:07:16;;;;;;;37.27;15.83;;;-0.30;99.90;;;;;;5041028;28;20098;-83
2022/01/10 07:10:01;;;;;;;32.73;15.00;;;-0.30;99.90;;;;;;5056535;28;20039;-82
2022/01/10 07:12:46;;;;;;;29.97;15.17;;;-0.30;99.90;;;;;;5067286;28;20051;-83
2022/01/10 07:15:30;;;;;;;31.70;16.20;;;-0.30;99.90;;;;;;5052478;28;20123;-83
2022/01/10 07:18:14;;;;;;;34.95;15.00;;;-0.30;99.90;;;;;;5036739;28;20040;-83
2022/01/10 07:20:58;;;;;;;;;;;0.70;99.90;;;;;;5052634;28;20044;-83
2022/01/10 07:23:42;;;;;;;31.40;14.40;;;-0.40;99.90;;;;;;5050563;28;19936;-83
2022/01/10 07:26:27;;;;;;;36.33;14.83;;;-0.50;99.90;;;;;;5057151;28;20124;-83
2022/01/10 07:29:12;;;;;;;37.43;15.77;;;0.30;99.90;;;;;;5071117;28;20047;-83
2022/01/10 07:31:57;;;;;;;33.63;15.13;;;-0.50;99.90;;;;;;5072402;28;20079;-83
2022/01/10 07:34:41;;;;;;;31.13;15.13;;;-0.50;99.90;;;;;;5038148;28;20051;-83
2022/01/10 07:37:26;;;;;;;30.70;15.77;;;-0.50;99.90;;;;;;5020281;28;20123;-84
2022/01/10 07:40:11;;;;;;;37.20;16.83;;;-0.50;99.90;;;;;;5059876;28;20097;-83
2022/01/10 07:42:55;;;;;;;48.17;17.53;;;-0.50;99.90;;;;;;5091851;28;20042;-84
2022/01/10 07:45:40;;;;;;;32.47;17.63;;;0.40;99.90;;;;;;5092358;28;20442;-84
2022/01/10 07:48:24;;;;;;;;;;;-0.50;99.90;;;;;;5076782;28;20039;-84
2022/01/10 07:51:11;;;;;;;;;;;-0.50;99.90;;;;;;5094854;28;19915;-84
2022/01/10 07:53:56;;;;;;;35.73;17.00;;;0.90;99.90;;;;;;5096135;28;19915;-84
2022/01/10 07:56:40;;;;;;;38.30;17.87;;;-0.50;99.90;;;;;;5081050;28;20867;-84
2022/01/10 07:59:25;;;;;;;36.80;17.53;;;-0.50;99.90;;;;;;5095537;28;20050;-84
2022/01/10 08:02:10;;;;;;;35.50;17.30;;;0.50;99.90;;;;;;5095878;28;20138;-84
2022/01/10 08:04:54;;;;;;;36.37;17.00;;;0.40;99.90;;;;;;5080499;28;20066;-84
2022/01/10 08:07:38;;;;;;;32.70;16.07;;;-0.50;99.90;;;;;;5080649;28;20047;-84
2022/01/10 08:10:22;;;;;;;35.40;17.77;;;-0.50;99.90;;;;;;5095352;28;20038;-84
2022/01/10 08:13:07;;;;;;;40.57;19.53;;;-0.50;99.90;;;;;;5096016;28;20039;-83
2022/01/10 08:15:51;;;;;;;44.10;19.00;;;-0.50;99.90;;;;;;5096136;28;20098;-84
2022/01/10 08:18:36;;;;;;;42.30;21.03;;;-0.40;99.90;;;;;;5095620;28;20093;-85
2022/01/10 08:21:20;;;;;;;41.83;20.20;;;-0.50;99.90;;;;;;5079984;28;20046;-84
2022/01/10 08:24:05;;;;;;;46.13;20.63;;;-0.40;99.90;;;;;;5080174;28;20121;-84
2022/01/10 08:26:50;;;;;;;40.47;19.77;;;-0.40;99.90;;;;;;5095805;28;20142;-84
2022/01/10 08:29:34;;;;;;;41.63;21.03;;;-0.40;99.90;;;;;;5080589;28;20047;-85
2022/01/10 08:32:19;;;;;;;42.57;20.70;;;-0.40;99.90;;;;;;5079431;28;20039;-84
2022/01/10 08:35:05;;;;;;;41.40;21.93;;;-0.40;99.90;;;;;;5077605;28;20042;-84
2022/01/10 08:37:49;;;;;;;47.13;22.70;;;-0.40;99.90;;;;;;5094988;28;20094;-84
2022/01/10 08:40:33;;;;;;;46.37;24.20;;;0.20;99.90;;;;;;5079603;28;20039;-85
2022/01/10 08:43:17;;;;;;;45.50;22.17;;;-0.30;99.90;;;;;;5094981;28;20047;-84
2022/01/10 08:46:01;;;;;;;;;;;0.40;99.90;;;;;;5094889;28;20079;-84
2022/01/10 08:48:46;;;;;;;50.97;22.73;;;-0.20;99.90;;;;;;5079354;28;20275;-83
2022/01/10 08:51:30;;;;;;;46.97;24.25;;;0.00;99.90;;;;;;5094291;28;20082;-83
2022/01/10 08:54:15;;;;;;;47.37;23.87;;;0.70;99.90;;;;;;5061998;28;20511;-84
2022/01/10 08:57:00;;;;;;;41.23;23.30;;;-0.10;99.90;;;;;;5079710;28;20514;-83
2022/01/10 08:59:45;;;;;;;43.73;22.97;;;-0.10;99.90;;;;;;5094767;28;20449;-84
2022/01/10 09:02:29;;;;;;;51.53;23.70;;;-0.10;99.90;;;;;;5077825;28;20055;-83
2022/01/10 09:05:13;;;;;;;;;;;0.00;99.90;;;;;;5095482;28;20078;-84
2022/01/10 09:08:00;;;;;;;53.45;23.77;;;0.90;99.90;;;;;;5094582;28;19954;-84
2022/01/10 09:10:44;;;;;;;50.30;22.10;;;1.30;99.90;;;;;;5094924;28;20166;-83
2022/01/10 09:13:28;;;;;;;;;;;0.80;99.90;;;;;;5094726;28;20044;-83
2022/01/10 09:16:14;;;;;;;60.15;22.33;;;2.10;99.90;;;;;;5079925;28;20284;-84
2022/01/10 09:18:58;;;;;;;47.17;22.60;;;1.70;99.90;;;;;;5094285;28;20083;-84
2022/01/10 09:21:43;;;;;;;50.93;22.63;;;0.50;99.90;;;;;;5079622;28;20047;-83
2022/01/10 09:24:27;;;;;;;47.60;22.60;;;2.10;99.90;;;;;;5064428;28;20093;-83
2022/01/10 09:27:11;;;;;;;;;;;1.40;99.90;;;;;;5079494;28;20074;-83
2022/01/10 09:29:56;;;;;;;46.88;22.52;;;0.50;99.90;;;;;;5059109;28;19927;-84
2022/01/10 09:32:50;;;;;;;52.90;24.73;;;2.00;99.90;;;;;;5061327;28;20035;-84
2022/01/10 09:35:34;;;;;;;49.40;22.73;;;1.30;99.90;;;;;;5094044;28;20094;-85
2022/01/10 09:38:19;;;;;;;41.40;22.77;;;0.70;99.90;;;;;;5078983;28;20101;-84
2022/01/10 09:41:03;;;;;;;;;;;1.30;99.90;;;;;;5078515;28;20043;-85
2022/01/10 09:43:56;;;;;;;46.28;24.00;;;0.80;99.90;;;;;;5093674;28;20378;-84
2022/01/10 09:46:40;;;;;;;50.80;24.30;;;0.90;99.90;;;;;;5093779;28;20342;-84
2022/01/10 09:49:25;;;;;;;55.47;25.30;;;1.10;99.90;;;;;;5078342;28;20042;-83
2022/01/10 09:52:09;;;;;;;;;;;1.00;99.90;;;;;;5079176;28;20043;-84
2022/01/10 09:54:53;;;;;;;;;;;1.10;99.90;;;;;;5094708;28;19915;-84
2022/01/10 09:57:37;;;;;;;46.20;20.75;;;1.10;99.90;;;;;;5093587;28;19915;-84
2022/01/10 10:00:22;;;;;;;42.87;22.73;;;2.10;99.90;;;;;;5078744;28;20500;-84
2022/01/10 10:03:06;;;;;;;;;;;1.70;99.90;;;;;;5079169;28;20089;-83
2022/01/10 10:05:55;;;;;;;47.30;21.60;;;1.60;99.90;;;;;;5093912;28;19915;-84
2022/01/10 10:08:39;;;;;;;48.67;23.27;;;1.40;99.90;;;;;;5092567;28;20125;-83
2022/01/10 10:11:38;;;;;;;43.13;24.30;;;1.40;99.90;;;;;;5091549;28;20512;-82
2022/01/10 10:14:23;;;;;;;50.50;24.77;;;2.30;99.90;;;;;;5073041;28;20071;-83
2022/01/10 10:17:13;;;;;;;54.23;24.90;;;1.70;99.90;;;;;;5084062;28;20043;-83
2022/01/10 10:19:57;;;;;;;58.13;25.10;;;1.70;99.90;;;;;;5064834;28;20494;-83
2022/01/10 10:22:45;;;;;;;46.90;25.30;;;1.80;99.90;;;;;;5093132;28;20039;-83
2022/01/10 10:25:31;;;;;;;51.13;25.23;;;2.40;99.90;;;;;;5093122;28;20495;-83
2022/01/10 10:28:16;;;;;;;44.67;24.07;;;3.60;99.90;;;;;;5093414;28;20127;-83
2022/01/10 10:31:01;;;;;;;52.53;27.00;;;2.80;99.90;;;;;;5078206;28;20043;-83
2022/01/10 10:33:50;;;;;;;52.97;24.83;;;3.20;99.90;;;;;;5092926;28;20097;-83
2022/01/10 10:36:36;;;;;;;45.77;24.50;;;2.10;99.90;;;;;;5077259;28;20071;-83
2022/01/10 10:39:24;;;;;;;48.63;24.23;;;2.20;99.90;;;;;;5093255;28;20046;-83
2022/01/10 10:42:11;;;;;;;50.57;26.17;;;2.30;99.90;;;;;;5093363;28;20415;-83
2022/01/10 10:44:56;;;;;;;40.57;24.07;;;2.40;99.90;;;;;;5093133;28;20043;-82
2022/01/10 10:47:43;;;;;;;51.73;24.17;;;2.60;99.90;;;;;;5092684;28;20075;-82
2022/01/10 10:50:29;;;;;;;45.03;25.53;;;2.50;99.90;;;;;;5064070;28;20101;-83
2022/01/10 10:53:15;;;;;;;36.77;21.67;;;2.60;99.90;;;;;;5064004;28;20510;-83
2022/01/10 10:56:02;;;;;;;43.50;25.03;;;3.00;99.90;;;;;;5093035;28;20126;-83
2022/01/10 10:58:47;;;;;;;43.00;23.40;;;2.90;99.90;;;;;;5092434;28;20106;-82
2022/01/10 11:01:32;;;;;;;46.87;23.27;;;2.80;99.90;;;;;;5092173;28;20392;-82
2022/01/10 11:04:16;;;;;;;44.83;22.57;;;2.90;99.90;;;;;;5048961;28;20040;-82
2022/01/10 11:07:02;;;;;;;43.33;22.07;;;3.30;99.90;;;;;;5092833;28;20055;-82
2022/01/10 11:09:46;;;;;;;36.57;21.63;;;3.00;99.90;;;;;;5092204;28;20483;-82
2022/01/10 11:12:33;;;;;;;40.27;20.53;;;3.30;99.90;;;;;;5077082;28;20511;-82
2022/01/10 11:15:17;;;;;;;50.80;26.67;;;3.10;99.90;;;;;;5092810;28;20128;-82
2022/01/10 11:18:03;;;;;;;43.47;20.43;;;3.20;99.90;;;;;;5092767;28;20086;-82
2022/01/10 11:20:51;;;;;;;36.07;21.17;;;3.30;99.90;;;;;;5076940;28;20126;-82
2022/01/10 11:23:41;;;;;;;35.87;21.30;;;4.70;99.90;;;;;;5091890;28;20113;-82
2022/01/10 11:26:38;;;;;;;42.23;22.17;;;3.90;99.90;;;;;;5076109;28;20059;-82
2022/01/10 11:29:29;;;;;;;35.77;21.10;;;3.50;99.90;;;;;;5091732;28;20047;-82
2022/01/10 11:32:13;;;;;;;32.20;19.63;;;3.60;99.90;;;;;;5092610;28;20054;-82
2022/01/10 11:35:05;;;;;;;32.53;20.00;;;3.80;99.90;;;;;;5076810;28;20487;-82
2022/01/10 11:37:49;;;;;;;33.72;21.73;;;3.60;99.90;;;;;;5092023;28;20058;-82
2022/01/10 11:40:34;;;;;;;;;;;3.70;99.90;;;;;;5092838;28;20101;-82
2022/01/10 11:43:42;;;;;;;40.35;20.08;;;3.70;99.90;;;;;;5091134;28;19915;-82
2022/01/10 11:46:36;;;;;;;36.10;18.83;;;3.80;99.90;;;;;;5092287;28;20054;-82
2022/01/10 11:49:22;;;;;;;38.08;20.30;;;3.80;99.90;;;;;;5092393;28;20449;-82
2022/01/10 11:52:06;;;;;;;37.80;19.13;;;4.90;99.90;;;;;;5077329;28;20453;-81
2022/01/10 11:54:54;;;;;;;35.67;19.97;;;3.90;99.90;;;;;;5076611;28;20054;-81
2022/01/10 11:57:41;;;;;;;33.35;19.25;;;4.00;99.90;;;;;;5091809;28;20035;-81
2022/01/10 12:00:35;;;;;;;40.95;21.10;;;3.90;99.90;;;;;;5092405;28;20043;-81
2022/01/10 12:03:21;;;;;;;33.03;19.50;;;4.00;99.90;;;;;;5077146;28;20404;-81
2022/01/10 12:06:05;;;;;;;34.90;20.45;;;4.10;99.90;;;;;;5092005;28;20042;-81
2022/01/10 12:08:53;;;;;;;;;;;4.10;99.90;;;;;;5091918;28;20545;-81
2022/01/10 12:11:39;;;;;;;31.20;18.80;;;4.80;99.90;;;;;;5076578;28;19962;-82
2022/01/10 12:14:23;;;;;;;32.80;18.30;;;4.40;99.90;;;;;;5089732;28;20078;-81
2022/01/10 12:17:09;;;;;;;32.08;18.58;;;4.20;99.90;;;;;;5090646;28;20043;-81
2022/01/10 12:19:53;;;;;;;37.78;18.88;;;4.20;99.90;;;;;;5090833;28;20050;-80
2022/01/10 12:22:38;;;;;;;;;;;4.30;99.90;;;;;;5091796;28;20051;-81
2022/01/10 12:25:24;;;;;;;30.13;17.15;;;4.30;99.90;;;;;;5077033;28;19961;-80
2022/01/10 12:28:09;;;;;;;31.63;18.73;;;5.00;99.90;;;;;;5091646;28;20086;-80
2022/01/10 12:30:57;;;;;;;33.95;19.98;;;4.40;99.90;;;;;;5091470;28;20085;-80
2022/01/10 12:33:41;;;;;;;42.25;19.52;;;4.60;99.90;;;;;;5076738;28;20036;-80
2022/01/10 12:36:28;;;;;;;32.42;18.15;;;4.40;99.90;;;;;;5093109;28;20396;-80
2022/01/10 12:39:22;;;;;;;35.42;20.17;;;4.40;99.90;;;;;;5095733;28;20109;-80
2022/01/10 12:42:08;;;;;;;29.13;16.17;;;4.50;99.90;;;;;;5094815;28;20074;-80
2022/01/10 12:44:53;;;;;;;36.38;17.85;;;5.20;99.90;;;;;;5094639;28;20109;-80
2022/01/10 12:47:37;;;;;;;33.45;18.83;;;5.20;99.90;;;;;;5079891;28;20570;-80
2022/01/10 12:50:21;;;;;;;;;;;5.00;99.90;;;;;;5095809;28;20047;-80
2022/01/10 12:53:06;;;;;;;32.47;17.00;;;4.70;99.90;;;;;;5094902;28;19977;-80
2022/01/10 12:55:50;;;;;;;31.02;16.92;;;5.60;99.90;;;;;;5079447;28;20499;-80
2022/01/10 12:58:34;;;;;;;;;;;4.80;99.90;;;;;;5095678;28;20062;-80
2022/01/10 13:01:21;;;;;;;27.63;17.17;;;4.80;99.90;;;;;;5079941;28;19919;-80
2022/01/10 13:04:06;;;;;;;35.60;17.75;;;4.80;99.90;;;;;;5094560;28;20115;-80
2022/01/10 13:06:51;;;;;;;36.75;18.20;;;4.80;99.90;;;;;;5094876;28;20051;-80
2022/01/10 13:09:38;;;;;;;31.67;16.85;;;4.90;99.90;;;;;;5094932;28;20042;-80
2022/01/10 13:12:28;;;;;;;33.53;16.23;;;5.20;99.90;;;;;;5095084;28;20038;-80
2022/01/10 13:15:14;;;;;;;27.60;16.02;;;4.90;99.90;;;;;;5094357;28;20043;-80
2022/01/10 13:18:02;;;;;;;34.30;17.08;;;4.90;99.90;;;;;;5078200;28;20035;-80
2022/01/10 13:20:54;;;;;;;37.20;18.10;;;5.00;99.90;;;;;;5094640;28;20047;-80
2022/01/10 13:23:39;;;;;;;30.20;17.33;;;5.10;99.90;;;;;;5093848;28;20082;-81
2022/01/10 13:26:27;;;;;;;31.70;17.17;;;6.40;99.90;;;;;;5094606;28;20075;-81
2022/01/10 13:29:11;;;;;;;30.50;16.00;;;5.00;99.90;;;;;;5093051;28;20034;-80
2022/01/10 13:31:56;;;;;;;33.05;17.77;;;5.10;99.90;;;;;;5092207;28;20042;-80
2022/01/10 13:34:40;;;;;;;27.00;16.75;;;5.30;99.90;;;;;;5094447;28;20045;-80
2022/01/10 13:37:40;;;;;;;29.10;17.08;;;5.60;99.90;;;;;;5094653;28;20059;-80
2022/01/10 13:40:30;;;;;;;29.25;15.90;;;5.10;99.90;;;;;;5094523;28;20411;-80
2022/01/10 13:43:19;;;;;;;29.77;17.20;;;5.50;99.90;;;;;;5093854;28;20411;-83
2022/01/10 13:46:07;;;;;;;38.60;17.63;;;5.20;99.90;;;;;;5093952;28;20051;-83
2022/01/10 13:48:55;;;;;;;34.05;16.88;;;5.20;99.90;;;;;;5077756;28;20047;-83
2022/01/10 13:51:39;;;;;;;32.60;18.55;;;5.30;99.90;;;;;;5077952;28;20035;-83
2022/01/10 13:54:30;;;;;;;;;;;6.00;99.90;;;;;;5079057;28;20051;-82
2022/01/10 13:57:21;;;;;;;30.98;16.15;;;5.10;99.90;;;;;;5077410;28;19974;-83
2022/01/10 14:00:23;;;;;;;29.02;17.88;;;5.10;99.90;;;;;;5093162;28;20039;-82
2022/01/10 14:03:07;;;;;;;32.05;16.92;;;5.10;99.90;;;;;;5075714;28;20043;-83
2022/01/10 14:06:05;;;;;;;;;;;5.40;99.90;;;;;;5078948;28;20047;-83
2022/01/10 14:08:52;;;;;;;32.85;17.15;;;5.10;99.90;;;;;;5093899;28;20021;-82
2022/01/10 14:11:36;;;;;;;29.80;17.08;;;5.10;99.90;;;;;;5093533;28;20089;-83
2022/01/10 14:14:20;;;;;;;32.13;17.00;;;5.50;99.90;;;;;;5071237;28;20446;-81
2022/01/10 14:17:05;;;;;;;28.08;16.83;;;5.10;99.90;;;;;;5083321;28;20449;-81
2022/01/10 14:19:49;;;;;;;29.33;17.48;;;5.30;99.90;;;;;;5090304;28;20035;-81
2022/01/10 14:22:34;;;;;;;27.38;17.98;;;5.20;99.90;;;;;;5091272;28;20039;-81
2022/01/10 14:25:22;;;;;;;34.95;18.98;;;5.10;99.90;;;;;;5089421;28;20089;-81
2022/01/10 14:28:06;;;;;;;35.58;19.17;;;5.60;99.90;;;;;;5077372;28;20396;-80
2022/01/10 14:30:51;;;;;;;;;;;5.00;99.90;;;;;;5084367;28;20120;-81
2022/01/10 14:33:35;;;;;;;36.00;20.05;;;5.10;99.90;;;;;;5087052;28;19915;-81
2022/01/10 14:36:19;;;;;;;;;;;5.00;99.90;;;;;;5085116;28;20530;-81